sensor_id;sensor_type;location;lat;lon;timestamp;P1;durP1;ratioP1;P2;durP2;ratioP2
72611;SDS011;60655;52.182;4.474;2023-04-03T00:01:05;3.35;;;1.00;;
72611;SDS011;60655;52.182;4.474;2023-04-03T00:03:07;3.65;;;1.10;;
72611;SDS011;60655;52.182;4.474;2023-04-03T00:05:08;5.80;;;1.15;;
72611;SDS011;60655;52.182;4.474;2023-04-03T00:07:25;3.75;;;1.05;;
72611;SDS011;60655;52.182;4.474;2023-04-03T00:09:25;2.25;;;0.80;;
72611;SDS011;60655;52.182;4.474;2023-04-03T00:11:26;5.20;;;0.95;;
72611;SDS011;60655;52.182;4.474;2023-04-03T00:13:27;4.50;;;1.48;;
72611;SDS011;60655;52.182;4.474;2023-04-03T00:17:29;4.95;;;1.10;;
72611;SDS011;60655;52.182;4.474;2023-04-03T00:19:30;3.80;;;1.17;;
72611;SDS011;60655;52.182;4.474;2023-04-03T00:21:31;4.65;;;1.20;;
72611;SDS011;60655;52.182;4.474;2023-04-03T00:23:32;2.70;;;0.90;;
72611;SDS011;60655;52.182;4.474;2023-04-03T00:25:33;4.65;;;1.10;;
72611;SDS011;60655;52.182;4.474;2023-04-03T00:27:38;6.20;;;1.20;;
72611;SDS011;60655;52.182;4.474;2023-04-03T00:29:40;4.53;;;0.90;;
72611;SDS011;60655;52.182;4.474;2023-04-03T00:31:41;3.78;;;0.98;;
72611;SDS011;60655;52.182;4.474;2023-04-03T00:33:42;3.58;;;0.95;;
72611;SDS011;60655;52.182;4.474;2023-04-03T00:37:44;3.58;;;0.90;;
72611;SDS011;60655;52.182;4.474;2023-04-03T00:39:46;2.25;;;0.82;;
72611;SDS011;60655;52.182;4.474;2023-04-03T00:41:47;7.50;;;1.10;;
72611;SDS011;60655;52.182;4.474;2023-04-03T00:45:49;3.55;;;0.93;;
72611;SDS011;60655;52.182;4.474;2023-04-03T00:47:51;5.97;;;1.20;;
72611;SDS011;60655;52.182;4.474;2023-04-03T00:51:53;3.58;;;0.93;;
72611;SDS011;60655;52.182;4.474;2023-04-03T00:54:00;7.32;;;1.00;;
72611;SDS011;60655;52.182;4.474;2023-04-03T00:56:04;3.72;;;0.95;;
72611;SDS011;60655;52.182;4.474;2023-04-03T00:58:07;5.72;;;1.10;;
72611;SDS011;60655;52.182;4.474;2023-04-03T01:00:11;2.97;;;0.95;;
72611;SDS011;60655;52.182;4.474;2023-04-03T01:02:15;2.63;;;0.95;;
72611;SDS011;60655;52.182;4.474;2023-04-03T01:06:47;3.65;;;1.00;;
72611;SDS011;60655;52.182;4.474;2023-04-03T01:10:50;3.15;;;0.90;;
72611;SDS011;60655;52.182;4.474;2023-04-03T01:12:51;4.78;;;1.35;;
72611;SDS011;60655;52.182;4.474;2023-04-03T01:14:56;1.63;;;0.73;;
72611;SDS011;60655;52.182;4.474;2023-04-03T01:16:59;2.65;;;1.00;;
72611;SDS011;60655;52.182;4.474;2023-04-03T01:19:00;2.65;;;0.68;;
72611;SDS011;60655;52.182;4.474;2023-04-03T01:24:04;3.35;;;0.80;;
72611;SDS011;60655;52.182;4.474;2023-04-03T01:26:32;3.40;;;0.88;;
72611;SDS011;60655;52.182;4.474;2023-04-03T01:28:34;3.00;;;1.00;;
72611;SDS011;60655;52.182;4.474;2023-04-03T01:30:39;3.95;;;0.90;;
72611;SDS011;60655;52.182;4.474;2023-04-03T01:32:46;3.13;;;1.10;;
72611;SDS011;60655;52.182;4.474;2023-04-03T01:34:47;2.17;;;0.70;;
72611;SDS011;60655;52.182;4.474;2023-04-03T01:36:48;3.38;;;1.00;;
72611;SDS011;60655;52.182;4.474;2023-04-03T01:40:50;1.88;;;0.80;;
72611;SDS011;60655;52.182;4.474;2023-04-03T01:42:51;2.53;;;0.70;;
72611;SDS011;60655;52.182;4.474;2023-04-03T01:44:52;2.33;;;0.80;;
72611;SDS011;60655;52.182;4.474;2023-04-03T01:46:53;2.55;;;0.80;;
72611;SDS011;60655;52.182;4.474;2023-04-03T01:48:54;4.47;;;1.00;;
72611;SDS011;60655;52.182;4.474;2023-04-03T01:52:56;2.08;;;0.80;;
72611;SDS011;60655;52.182;4.474;2023-04-03T01:54:57;3.15;;;0.73;;
72611;SDS011;60655;52.182;4.474;2023-04-03T01:56:58;3.25;;;0.90;;
72611;SDS011;60655;52.182;4.474;2023-04-03T01:58:59;3.53;;;0.95;;
72611;SDS011;60655;52.182;4.474;2023-04-03T02:01:00;3.03;;;0.98;;
72611;SDS011;60655;52.182;4.474;2023-04-03T02:03:02;4.82;;;1.33;;
72611;SDS011;60655;52.182;4.474;2023-04-03T02:05:03;4.20;;;1.13;;
72611;SDS011;60655;52.182;4.474;2023-04-03T02:09:05;3.65;;;1.02;;
72611;SDS011;60655;52.182;4.474;2023-04-03T02:11:07;4.43;;;0.90;;
72611;SDS011;60655;52.182;4.474;2023-04-03T02:13:08;2.03;;;0.80;;
72611;SDS011;60655;52.182;4.474;2023-04-03T02:15:09;6.43;;;1.00;;
72611;SDS011;60655;52.182;4.474;2023-04-03T02:17:10;2.70;;;0.95;;
72611;SDS011;60655;52.182;4.474;2023-04-03T02:19:11;3.63;;;1.20;;
72611;SDS011;60655;52.182;4.474;2023-04-03T02:21:12;5.05;;;1.17;;
72611;SDS011;60655;52.182;4.474;2023-04-03T02:23:13;4.70;;;1.00;;
72611;SDS011;60655;52.182;4.474;2023-04-03T02:25:14;4.38;;;1.10;;
72611;SDS011;60655;52.182;4.474;2023-04-03T02:27:15;4.72;;;1.00;;
72611;SDS011;60655;52.182;4.474;2023-04-03T02:29:16;4.15;;;1.15;;
72611;SDS011;60655;52.182;4.474;2023-04-03T02:31:17;4.45;;;0.90;;
72611;SDS011;60655;52.182;4.474;2023-04-03T02:33:18;7.68;;;1.13;;
72611;SDS011;60655;52.182;4.474;2023-04-03T02:37:20;2.00;;;0.75;;
72611;SDS011;60655;52.182;4.474;2023-04-03T02:39:21;4.05;;;1.02;;
72611;SDS011;60655;52.182;4.474;2023-04-03T02:41:22;2.85;;;1.00;;
72611;SDS011;60655;52.182;4.474;2023-04-03T02:43:25;3.50;;;1.13;;
72611;SDS011;60655;52.182;4.474;2023-04-03T02:45:26;4.90;;;1.27;;
72611;SDS011;60655;52.182;4.474;2023-04-03T02:47:27;3.38;;;1.00;;
72611;SDS011;60655;52.182;4.474;2023-04-03T02:49:28;3.88;;;1.02;;
72611;SDS011;60655;52.182;4.474;2023-04-03T02:51:29;7.78;;;1.42;;
72611;SDS011;60655;52.182;4.474;2023-04-03T02:53:30;3.45;;;1.08;;
72611;SDS011;60655;52.182;4.474;2023-04-03T02:55:31;6.07;;;1.40;;
72611;SDS011;60655;52.182;4.474;2023-04-03T02:57:32;6.43;;;1.40;;
72611;SDS011;60655;52.182;4.474;2023-04-03T02:59:33;3.33;;;1.05;;
72611;SDS011;60655;52.182;4.474;2023-04-03T03:03:36;3.63;;;1.17;;
72611;SDS011;60655;52.182;4.474;2023-04-03T03:07:38;4.45;;;1.17;;
72611;SDS011;60655;52.182;4.474;2023-04-03T03:09:39;6.20;;;1.20;;
72611;SDS011;60655;52.182;4.474;2023-04-03T03:13:40;2.55;;;0.82;;
72611;SDS011;60655;52.182;4.474;2023-04-03T03:15:42;4.60;;;1.02;;
72611;SDS011;60655;52.182;4.474;2023-04-03T03:17:43;4.20;;;1.20;;
72611;SDS011;60655;52.182;4.474;2023-04-03T03:19:44;3.25;;;1.20;;
72611;SDS011;60655;52.182;4.474;2023-04-03T03:21:46;3.38;;;1.20;;
72611;SDS011;60655;52.182;4.474;2023-04-03T03:23:47;4.05;;;1.10;;
72611;SDS011;60655;52.182;4.474;2023-04-03T03:25:48;3.92;;;1.15;;
72611;SDS011;60655;52.182;4.474;2023-04-03T03:27:49;4.45;;;1.20;;
72611;SDS011;60655;52.182;4.474;2023-04-03T03:29:50;3.65;;;1.30;;
72611;SDS011;60655;52.182;4.474;2023-04-03T03:31:51;4.82;;;1.30;;
72611;SDS011;60655;52.182;4.474;2023-04-03T03:33:52;3.38;;;1.10;;
72611;SDS011;60655;52.182;4.474;2023-04-03T03:35:53;4.30;;;1.48;;
72611;SDS011;60655;52.182;4.474;2023-04-03T03:37:54;6.43;;;1.08;;
72611;SDS011;60655;52.182;4.474;2023-04-03T03:39:55;4.68;;;1.38;;
72611;SDS011;60655;52.182;4.474;2023-04-03T03:41:56;6.55;;;1.30;;
72611;SDS011;60655;52.182;4.474;2023-04-03T03:43:57;6.22;;;1.38;;
72611;SDS011;60655;52.182;4.474;2023-04-03T03:45:58;4.15;;;1.20;;
72611;SDS011;60655;52.182;4.474;2023-04-03T03:47:59;4.32;;;1.42;;
72611;SDS011;60655;52.182;4.474;2023-04-03T03:50:00;6.80;;;1.80;;
72611;SDS011;60655;52.182;4.474;2023-04-03T03:52:01;3.80;;;1.25;;
72611;SDS011;60655;52.182;4.474;2023-04-03T03:56:04;7.72;;;1.17;;
72611;SDS011;60655;52.182;4.474;2023-04-03T03:58:05;3.38;;;1.15;;
72611;SDS011;60655;52.182;4.474;2023-04-03T04:00:06;5.40;;;1.25;;
72611;SDS011;60655;52.182;4.474;2023-04-03T04:02:07;4.97;;;1.45;;
72611;SDS011;60655;52.182;4.474;2023-04-03T04:06:09;6.60;;;1.50;;
72611;SDS011;60655;52.182;4.474;2023-04-03T04:08:10;4.13;;;1.30;;
72611;SDS011;60655;52.182;4.474;2023-04-03T04:10:11;3.30;;;1.20;;
72611;SDS011;60655;52.182;4.474;2023-04-03T04:12:14;4.43;;;1.50;;
72611;SDS011;60655;52.182;4.474;2023-04-03T04:14:16;5.85;;;1.30;;
72611;SDS011;60655;52.182;4.474;2023-04-03T04:16:17;4.25;;;1.70;;
72611;SDS011;60655;52.182;4.474;2023-04-03T04:18:18;8.20;;;1.45;;
72611;SDS011;60655;52.182;4.474;2023-04-03T04:20:20;4.25;;;1.27;;
72611;SDS011;60655;52.182;4.474;2023-04-03T04:22:21;6.15;;;1.55;;
72611;SDS011;60655;52.182;4.474;2023-04-03T04:24:22;4.95;;;1.25;;
72611;SDS011;60655;52.182;4.474;2023-04-03T04:26:23;4.15;;;1.38;;
72611;SDS011;60655;52.182;4.474;2023-04-03T04:30:25;5.15;;;1.40;;
72611;SDS011;60655;52.182;4.474;2023-04-03T04:32:27;4.60;;;1.63;;
72611;SDS011;60655;52.182;4.474;2023-04-03T04:34:28;5.65;;;1.77;;
72611;SDS011;60655;52.182;4.474;2023-04-03T04:36:30;5.50;;;1.48;;
72611;SDS011;60655;52.182;4.474;2023-04-03T04:38:31;5.95;;;1.52;;
72611;SDS011;60655;52.182;4.474;2023-04-03T04:40:32;3.78;;;1.05;;
72611;SDS011;60655;52.182;4.474;2023-04-03T04:42:32;4.75;;;1.27;;
72611;SDS011;60655;52.182;4.474;2023-04-03T04:44:33;3.28;;;1.40;;
72611;SDS011;60655;52.182;4.474;2023-04-03T04:48:35;3.95;;;1.20;;
72611;SDS011;60655;52.182;4.474;2023-04-03T04:50:36;5.00;;;1.77;;
72611;SDS011;60655;52.182;4.474;2023-04-03T04:52:38;5.22;;;1.58;;
72611;SDS011;60655;52.182;4.474;2023-04-03T04:54:39;5.18;;;1.33;;
72611;SDS011;60655;52.182;4.474;2023-04-03T04:56:40;3.72;;;1.50;;
72611;SDS011;60655;52.182;4.474;2023-04-03T04:58:41;2.95;;;1.30;;
72611;SDS011;60655;52.182;4.474;2023-04-03T05:00:42;4.78;;;1.45;;
72611;SDS011;60655;52.182;4.474;2023-04-03T05:02:43;6.57;;;1.48;;
72611;SDS011;60655;52.182;4.474;2023-04-03T05:04:44;5.90;;;1.70;;
72611;SDS011;60655;52.182;4.474;2023-04-03T05:06:45;8.48;;;1.83;;
72611;SDS011;60655;52.182;4.474;2023-04-03T05:08:46;8.30;;;1.40;;
72611;SDS011;60655;52.182;4.474;2023-04-03T05:10:47;6.90;;;1.77;;
72611;SDS011;60655;52.182;4.474;2023-04-03T05:12:48;4.50;;;1.70;;
72611;SDS011;60655;52.182;4.474;2023-04-03T05:14:49;6.03;;;1.63;;
72611;SDS011;60655;52.182;4.474;2023-04-03T05:16:50;5.20;;;1.75;;
72611;SDS011;60655;52.182;4.474;2023-04-03T05:18:54;3.15;;;1.20;;
72611;SDS011;60655;52.182;4.474;2023-04-03T05:20:55;4.60;;;1.50;;
72611;SDS011;60655;52.182;4.474;2023-04-03T05:22:56;4.38;;;1.50;;
72611;SDS011;60655;52.182;4.474;2023-04-03T05:24:57;6.43;;;2.30;;
72611;SDS011;60655;52.182;4.474;2023-04-03T05:26:58;7.03;;;1.98;;
72611;SDS011;60655;52.182;4.474;2023-04-03T05:28:59;14.57;;;1.92;;
72611;SDS011;60655;52.182;4.474;2023-04-03T05:31:00;4.68;;;1.95;;
72611;SDS011;60655;52.182;4.474;2023-04-03T05:33:01;3.65;;;1.40;;
72611;SDS011;60655;52.182;4.474;2023-04-03T05:35:03;6.47;;;1.70;;
72611;SDS011;60655;52.182;4.474;2023-04-03T05:37:04;9.27;;;1.80;;
72611;SDS011;60655;52.182;4.474;2023-04-03T05:39:05;5.72;;;1.73;;
72611;SDS011;60655;52.182;4.474;2023-04-03T05:41:06;6.50;;;1.63;;
72611;SDS011;60655;52.182;4.474;2023-04-03T05:43:07;5.10;;;1.80;;
72611;SDS011;60655;52.182;4.474;2023-04-03T05:45:08;5.53;;;1.50;;
72611;SDS011;60655;52.182;4.474;2023-04-03T05:47:09;3.17;;;1.30;;
72611;SDS011;60655;52.182;4.474;2023-04-03T05:49:10;9.60;;;1.58;;
72611;SDS011;60655;52.182;4.474;2023-04-03T05:51:15;6.32;;;1.73;;
72611;SDS011;60655;52.182;4.474;2023-04-03T05:53:21;7.57;;;1.85;;
72611;SDS011;60655;52.182;4.474;2023-04-03T05:55:25;7.20;;;1.92;;
72611;SDS011;60655;52.182;4.474;2023-04-03T05:57:26;5.82;;;1.73;;
72611;SDS011;60655;52.182;4.474;2023-04-03T05:59:27;6.25;;;1.60;;
72611;SDS011;60655;52.182;4.474;2023-04-03T06:01:28;4.45;;;1.52;;
72611;SDS011;60655;52.182;4.474;2023-04-03T06:03:29;4.47;;;1.50;;
72611;SDS011;60655;52.182;4.474;2023-04-03T06:05:29;7.43;;;1.75;;
72611;SDS011;60655;52.182;4.474;2023-04-03T06:09:31;8.52;;;2.00;;
72611;SDS011;60655;52.182;4.474;2023-04-03T06:11:32;5.75;;;1.95;;
72611;SDS011;60655;52.182;4.474;2023-04-03T06:13:33;8.27;;;2.28;;
72611;SDS011;60655;52.182;4.474;2023-04-03T06:15:36;5.90;;;2.00;;
72611;SDS011;60655;52.182;4.474;2023-04-03T06:17:37;4.90;;;1.70;;
72611;SDS011;60655;52.182;4.474;2023-04-03T06:19:38;6.28;;;1.73;;
72611;SDS011;60655;52.182;4.474;2023-04-03T06:21:39;7.25;;;1.77;;
72611;SDS011;60655;52.182;4.474;2023-04-03T06:23:40;5.78;;;1.50;;
72611;SDS011;60655;52.182;4.474;2023-04-03T06:25:41;7.45;;;1.73;;
72611;SDS011;60655;52.182;4.474;2023-04-03T06:27:42;7.95;;;1.73;;
72611;SDS011;60655;52.182;4.474;2023-04-03T06:29:43;5.32;;;1.80;;
72611;SDS011;60655;52.182;4.474;2023-04-03T06:31:45;6.13;;;1.92;;
72611;SDS011;60655;52.182;4.474;2023-04-03T06:33:46;5.65;;;1.90;;
72611;SDS011;60655;52.182;4.474;2023-04-03T06:35:47;6.13;;;1.80;;
72611;SDS011;60655;52.182;4.474;2023-04-03T06:37:48;9.98;;;1.90;;
72611;SDS011;60655;52.182;4.474;2023-04-03T06:41:50;6.05;;;1.67;;
72611;SDS011;60655;52.182;4.474;2023-04-03T06:43:52;5.60;;;1.80;;
72611;SDS011;60655;52.182;4.474;2023-04-03T06:45:53;7.68;;;1.85;;
72611;SDS011;60655;52.182;4.474;2023-04-03T06:47:53;5.20;;;1.80;;
72611;SDS011;60655;52.182;4.474;2023-04-03T06:49:55;7.32;;;1.80;;
72611;SDS011;60655;52.182;4.474;2023-04-03T06:51:57;5.78;;;1.92;;
72611;SDS011;60655;52.182;4.474;2023-04-03T06:53:58;5.78;;;1.70;;
72611;SDS011;60655;52.182;4.474;2023-04-03T06:56:00;7.35;;;1.92;;
72611;SDS011;60655;52.182;4.474;2023-04-03T06:58:01;5.43;;;2.00;;
72611;SDS011;60655;52.182;4.474;2023-04-03T07:00:03;5.55;;;1.70;;
72611;SDS011;60655;52.182;4.474;2023-04-03T07:02:05;5.47;;;1.77;;
72611;SDS011;60655;52.182;4.474;2023-04-03T07:04:06;5.70;;;1.67;;
72611;SDS011;60655;52.182;4.474;2023-04-03T07:06:09;8.77;;;1.80;;
72611;SDS011;60655;52.182;4.474;2023-04-03T07:08:12;4.60;;;1.60;;
72611;SDS011;60655;52.182;4.474;2023-04-03T07:10:13;6.60;;;1.60;;
72611;SDS011;60655;52.182;4.474;2023-04-03T07:12:14;6.22;;;1.88;;
72611;SDS011;60655;52.182;4.474;2023-04-03T07:14:16;6.13;;;1.70;;
72611;SDS011;60655;52.182;4.474;2023-04-03T07:16:17;5.82;;;1.70;;
72611;SDS011;60655;52.182;4.474;2023-04-03T07:18:18;6.70;;;1.98;;
72611;SDS011;60655;52.182;4.474;2023-04-03T07:20:19;9.35;;;1.83;;
72611;SDS011;60655;52.182;4.474;2023-04-03T07:22:20;6.10;;;1.90;;
72611;SDS011;60655;52.182;4.474;2023-04-03T07:26:22;5.28;;;1.73;;
72611;SDS011;60655;52.182;4.474;2023-04-03T07:28:23;10.30;;;1.70;;
72611;SDS011;60655;52.182;4.474;2023-04-03T07:30:25;5.38;;;1.70;;
72611;SDS011;60655;52.182;4.474;2023-04-03T07:34:27;4.43;;;1.83;;
72611;SDS011;60655;52.182;4.474;2023-04-03T07:36:28;4.40;;;1.25;;
72611;SDS011;60655;52.182;4.474;2023-04-03T07:38:29;5.65;;;1.38;;
72611;SDS011;60655;52.182;4.474;2023-04-03T07:40:31;6.50;;;1.52;;
72611;SDS011;60655;52.182;4.474;2023-04-03T07:42:32;6.63;;;1.63;;
72611;SDS011;60655;52.182;4.474;2023-04-03T07:44:33;5.93;;;1.40;;
72611;SDS011;60655;52.182;4.474;2023-04-03T07:46:36;8.48;;;1.98;;
72611;SDS011;60655;52.182;4.474;2023-04-03T07:48:38;7.65;;;1.85;;
72611;SDS011;60655;52.182;4.474;2023-04-03T07:50:42;7.82;;;2.05;;
72611;SDS011;60655;52.182;4.474;2023-04-03T07:52:43;5.75;;;1.40;;
72611;SDS011;60655;52.182;4.474;2023-04-03T07:54:44;5.40;;;1.67;;
72611;SDS011;60655;52.182;4.474;2023-04-03T07:58:46;8.57;;;1.95;;
72611;SDS011;60655;52.182;4.474;2023-04-03T08:00:47;6.20;;;1.50;;
72611;SDS011;60655;52.182;4.474;2023-04-03T08:04:51;4.10;;;1.30;;
72611;SDS011;60655;52.182;4.474;2023-04-03T08:06:52;3.85;;;1.23;;
72611;SDS011;60655;52.182;4.474;2023-04-03T08:08:53;5.20;;;1.77;;
72611;SDS011;60655;52.182;4.474;2023-04-03T08:10:54;5.47;;;1.35;;
72611;SDS011;60655;52.182;4.474;2023-04-03T08:14:56;5.10;;;1.40;;
72611;SDS011;60655;52.182;4.474;2023-04-03T08:16:57;5.63;;;1.40;;
72611;SDS011;60655;52.182;4.474;2023-04-03T08:18:58;10.98;;;1.33;;
72611;SDS011;60655;52.182;4.474;2023-04-03T08:20:59;4.13;;;1.13;;
72611;SDS011;60655;52.182;4.474;2023-04-03T08:23:00;5.40;;;1.40;;
72611;SDS011;60655;52.182;4.474;2023-04-03T08:27:02;4.78;;;1.33;;
72611;SDS011;60655;52.182;4.474;2023-04-03T08:29:03;4.15;;;1.60;;
72611;SDS011;60655;52.182;4.474;2023-04-03T08:31:05;3.65;;;1.20;;
72611;SDS011;60655;52.182;4.474;2023-04-03T08:33:08;8.60;;;1.75;;
72611;SDS011;60655;52.182;4.474;2023-04-03T08:35:10;2.67;;;1.23;;
72611;SDS011;60655;52.182;4.474;2023-04-03T08:37:12;5.43;;;1.48;;
72611;SDS011;60655;52.182;4.474;2023-04-03T08:39:12;5.10;;;1.50;;
72611;SDS011;60655;52.182;4.474;2023-04-03T08:43:53;4.70;;;1.20;;
72611;SDS011;60655;52.182;4.474;2023-04-03T08:46:03;4.00;;;1.17;;
72611;SDS011;60655;52.182;4.474;2023-04-03T08:48:12;5.00;;;1.50;;
72611;SDS011;60655;52.182;4.474;2023-04-03T08:50:19;5.93;;;1.30;;
72611;SDS011;60655;52.182;4.474;2023-04-03T08:52:25;5.20;;;1.42;;
72611;SDS011;60655;52.182;4.474;2023-04-03T08:54:35;4.18;;;1.20;;
72611;SDS011;60655;52.182;4.474;2023-04-03T08:56:48;6.05;;;1.67;;
72611;SDS011;60655;52.182;4.474;2023-04-03T08:58:50;2.95;;;1.13;;
72611;SDS011;60655;52.182;4.474;2023-04-03T09:01:03;6.28;;;1.17;;
72611;SDS011;60655;52.182;4.474;2023-04-03T09:03:14;4.57;;;1.15;;
72611;SDS011;60655;52.182;4.474;2023-04-03T09:07:39;2.55;;;0.90;;
72611;SDS011;60655;52.182;4.474;2023-04-03T09:09:45;4.28;;;1.25;;
72611;SDS011;60655;52.182;4.474;2023-04-03T09:14:33;4.65;;;1.05;;
72611;SDS011;60655;52.182;4.474;2023-04-03T09:16:58;7.32;;;1.30;;
72611;SDS011;60655;52.182;4.474;2023-04-03T09:19:20;3.65;;;1.02;;
72611;SDS011;60655;52.182;4.474;2023-04-03T09:21:39;3.55;;;1.10;;
72611;SDS011;60655;52.182;4.474;2023-04-03T09:23:50;5.85;;;1.40;;
72611;SDS011;60655;52.182;4.474;2023-04-03T09:25:56;6.43;;;1.40;;
72611;SDS011;60655;52.182;4.474;2023-04-03T09:28:04;3.70;;;1.00;;
72611;SDS011;60655;52.182;4.474;2023-04-03T09:30:15;5.80;;;1.05;;
72611;SDS011;60655;52.182;4.474;2023-04-03T09:34:32;4.72;;;1.20;;
72611;SDS011;60655;52.182;4.474;2023-04-03T09:36:44;2.42;;;0.85;;
72611;SDS011;60655;52.182;4.474;2023-04-03T09:38:56;4.43;;;0.90;;
72611;SDS011;60655;52.182;4.474;2023-04-03T09:41:05;2.58;;;1.00;;
72611;SDS011;60655;52.182;4.474;2023-04-03T09:45:28;3.83;;;0.90;;
72611;SDS011;60655;52.182;4.474;2023-04-03T09:47:33;1.75;;;0.80;;
72611;SDS011;60655;52.182;4.474;2023-04-03T09:49:35;3.72;;;0.95;;
72611;SDS011;60655;52.182;4.474;2023-04-03T09:55:43;2.42;;;0.80;;
72611;SDS011;60655;52.182;4.474;2023-04-03T09:57:46;3.22;;;1.00;;
72611;SDS011;60655;52.182;4.474;2023-04-03T09:59:58;2.55;;;0.80;;
72611;SDS011;60655;52.182;4.474;2023-04-03T10:02:04;3.92;;;0.75;;
72611;SDS011;60655;52.182;4.474;2023-04-03T10:04:19;2.15;;;0.80;;
72611;SDS011;60655;52.182;4.474;2023-04-03T10:06:23;2.35;;;0.88;;
72611;SDS011;60655;52.182;4.474;2023-04-03T10:08:26;3.33;;;0.80;;
72611;SDS011;60655;52.182;4.474;2023-04-03T10:10:29;3.88;;;0.85;;
72611;SDS011;60655;52.182;4.474;2023-04-03T10:12:31;1.75;;;0.82;;
72611;SDS011;60655;52.182;4.474;2023-04-03T10:14:36;2.28;;;0.80;;
72611;SDS011;60655;52.182;4.474;2023-04-03T10:16:41;2.22;;;0.70;;
72611;SDS011;60655;52.182;4.474;2023-04-03T10:21:13;1.48;;;0.50;;
72611;SDS011;60655;52.182;4.474;2023-04-03T10:23:38;1.10;;;0.60;;
72611;SDS011;60655;52.182;4.474;2023-04-03T10:27:58;2.15;;;0.80;;
72611;SDS011;60655;52.182;4.474;2023-04-03T10:34:43;3.05;;;0.80;;
72611;SDS011;60655;52.182;4.474;2023-04-03T10:39:54;2.17;;;0.85;;
72611;SDS011;60655;52.182;4.474;2023-04-03T10:43:59;2.47;;;0.68;;
72611;SDS011;60655;52.182;4.474;2023-04-03T10:53:34;3.28;;;0.60;;
72611;SDS011;60655;52.182;4.474;2023-04-03T10:55:54;3.92;;;0.68;;
72611;SDS011;60655;52.182;4.474;2023-04-03T10:58:04;2.38;;;0.90;;
72611;SDS011;60655;52.182;4.474;2023-04-03T11:00:07;3.63;;;0.73;;
72611;SDS011;60655;52.182;4.474;2023-04-03T11:05:04;2.45;;;0.60;;
72611;SDS011;60655;52.182;4.474;2023-04-03T11:07:26;3.03;;;0.70;;
72611;SDS011;60655;52.182;4.474;2023-04-03T11:09:33;2.10;;;0.50;;
72611;SDS011;60655;52.182;4.474;2023-04-03T11:11:39;1.55;;;0.60;;
72611;SDS011;60655;52.182;4.474;2023-04-03T11:13:44;2.63;;;0.85;;
72611;SDS011;60655;52.182;4.474;2023-04-03T11:15:50;3.05;;;0.77;;
72611;SDS011;60655;52.182;4.474;2023-04-03T11:17:54;1.23;;;0.45;;
72611;SDS011;60655;52.182;4.474;2023-04-03T11:22:24;1.55;;;0.50;;
72611;SDS011;60655;52.182;4.474;2023-04-03T11:24:29;1.50;;;0.40;;
72611;SDS011;60655;52.182;4.474;2023-04-03T11:26:36;0.90;;;0.50;;
72611;SDS011;60655;52.182;4.474;2023-04-03T11:28:42;1.00;;;0.50;;
72611;SDS011;60655;52.182;4.474;2023-04-03T11:35:03;1.13;;;0.68;;
72611;SDS011;60655;52.182;4.474;2023-04-03T11:37:16;2.78;;;0.70;;
72611;SDS011;60655;52.182;4.474;2023-04-03T11:39:31;3.15;;;0.52;;
72611;SDS011;60655;52.182;4.474;2023-04-03T11:41:34;1.38;;;0.40;;
72611;SDS011;60655;52.182;4.474;2023-04-03T11:48:55;2.75;;;0.60;;
72611;SDS011;60655;52.182;4.474;2023-04-03T11:51:05;0.88;;;0.57;;
72611;SDS011;60655;52.182;4.474;2023-04-03T11:53:43;0.70;;;0.25;;
72611;SDS011;60655;52.182;4.474;2023-04-03T11:59:59;2.55;;;0.50;;
72611;SDS011;60655;52.182;4.474;2023-04-03T12:02:00;1.83;;;0.60;;
72611;SDS011;60655;52.182;4.474;2023-04-03T12:04:06;1.88;;;0.60;;
72611;SDS011;60655;52.182;4.474;2023-04-03T12:08:26;1.38;;;0.60;;
72611;SDS011;60655;52.182;4.474;2023-04-03T12:10:29;1.98;;;0.70;;
72611;SDS011;60655;52.182;4.474;2023-04-03T12:14:36;3.65;;;0.70;;
72611;SDS011;60655;52.182;4.474;2023-04-03T12:20:55;2.10;;;0.60;;
72611;SDS011;60655;52.182;4.474;2023-04-03T12:25:47;1.45;;;0.47;;
72611;SDS011;60655;52.182;4.474;2023-04-03T12:27:50;3.08;;;0.60;;
72611;SDS011;60655;52.182;4.474;2023-04-03T12:30:00;1.50;;;0.50;;
72611;SDS011;60655;52.182;4.474;2023-04-03T12:39:09;1.45;;;0.50;;
72611;SDS011;60655;52.182;4.474;2023-04-03T12:41:38;1.20;;;0.50;;
72611;SDS011;60655;52.182;4.474;2023-04-03T12:44:12;3.03;;;0.40;;
72611;SDS011;60655;52.182;4.474;2023-04-03T12:46:38;2.97;;;0.60;;
72611;SDS011;60655;52.182;4.474;2023-04-03T12:48:54;1.40;;;0.50;;
72611;SDS011;60655;52.182;4.474;2023-04-03T12:51:00;1.90;;;0.32;;
72611;SDS011;60655;52.182;4.474;2023-04-03T12:53:06;3.40;;;0.70;;
72611;SDS011;60655;52.182;4.474;2023-04-03T12:55:28;3.17;;;0.73;;
72611;SDS011;60655;52.182;4.474;2023-04-03T12:57:29;2.63;;;0.77;;
72611;SDS011;60655;52.182;4.474;2023-04-03T12:59:31;2.63;;;0.60;;
72611;SDS011;60655;52.182;4.474;2023-04-03T13:01:32;1.88;;;0.60;;
72611;SDS011;60655;52.182;4.474;2023-04-03T13:03:39;1.73;;;0.63;;
72611;SDS011;60655;52.182;4.474;2023-04-03T13:05:44;2.10;;;0.60;;
72611;SDS011;60655;52.182;4.474;2023-04-03T13:07:54;1.33;;;0.50;;
72611;SDS011;60655;52.182;4.474;2023-04-03T13:10:00;1.70;;;0.50;;
72611;SDS011;60655;52.182;4.474;2023-04-03T13:12:10;2.83;;;0.65;;
72611;SDS011;60655;52.182;4.474;2023-04-03T13:14:23;2.13;;;0.45;;
72611;SDS011;60655;52.182;4.474;2023-04-03T13:16:26;2.30;;;0.60;;
72611;SDS011;60655;52.182;4.474;2023-04-03T13:18:32;3.30;;;0.65;;
72611;SDS011;60655;52.182;4.474;2023-04-03T13:20:35;2.38;;;0.80;;
72611;SDS011;60655;52.182;4.474;2023-04-03T13:22:44;3.65;;;0.80;;
72611;SDS011;60655;52.182;4.474;2023-04-03T13:24:47;2.28;;;0.55;;
72611;SDS011;60655;52.182;4.474;2023-04-03T13:26:51;0.93;;;0.50;;
72611;SDS011;60655;52.182;4.474;2023-04-03T13:28:53;2.80;;;0.70;;
72611;SDS011;60655;52.182;4.474;2023-04-03T13:33:22;2.97;;;0.80;;
72611;SDS011;60655;52.182;4.474;2023-04-03T13:35:30;2.40;;;0.95;;
72611;SDS011;60655;52.182;4.474;2023-04-03T13:37:40;2.80;;;0.60;;
72611;SDS011;60655;52.182;4.474;2023-04-03T13:40:00;1.25;;;0.50;;
72611;SDS011;60655;52.182;4.474;2023-04-03T13:42:30;2.45;;;0.77;;
72611;SDS011;60655;52.182;4.474;2023-04-03T13:44:34;2.97;;;0.75;;
72611;SDS011;60655;52.182;4.474;2023-04-03T13:46:36;3.42;;;0.90;;
72611;SDS011;60655;52.182;4.474;2023-04-03T13:48:39;2.17;;;0.90;;
72611;SDS011;60655;52.182;4.474;2023-04-03T13:50:52;3.00;;;0.70;;
72611;SDS011;60655;52.182;4.474;2023-04-03T13:53:10;2.10;;;0.60;;
72611;SDS011;60655;52.182;4.474;2023-04-03T13:57:21;5.72;;;1.10;;
72611;SDS011;60655;52.182;4.474;2023-04-03T14:01:41;3.97;;;0.80;;
72611;SDS011;60655;52.182;4.474;2023-04-03T14:03:47;3.42;;;0.70;;
72611;SDS011;60655;52.182;4.474;2023-04-03T14:05:57;2.08;;;0.70;;
72611;SDS011;60655;52.182;4.474;2023-04-03T14:07:59;5.13;;;0.85;;
72611;SDS011;60655;52.182;4.474;2023-04-03T14:10:00;3.50;;;0.90;;
72611;SDS011;60655;52.182;4.474;2023-04-03T14:12:05;2.40;;;0.90;;
72611;SDS011;60655;52.182;4.474;2023-04-03T14:14:16;2.35;;;0.70;;
72611;SDS011;60655;52.182;4.474;2023-04-03T14:16:21;4.07;;;0.85;;
72611;SDS011;60655;52.182;4.474;2023-04-03T14:18:23;2.13;;;0.73;;
72611;SDS011;60655;52.182;4.474;2023-04-03T14:20:25;3.13;;;0.90;;
72611;SDS011;60655;52.182;4.474;2023-04-03T14:22:28;4.00;;;0.90;;
72611;SDS011;60655;52.182;4.474;2023-04-03T14:24:32;3.60;;;0.88;;
72611;SDS011;60655;52.182;4.474;2023-04-03T14:26:33;6.57;;;0.70;;
72611;SDS011;60655;52.182;4.474;2023-04-03T14:28:34;3.13;;;1.00;;
72611;SDS011;60655;52.182;4.474;2023-04-03T14:30:35;3.42;;;0.88;;
72611;SDS011;60655;52.182;4.474;2023-04-03T14:32:37;2.88;;;0.82;;
72611;SDS011;60655;52.182;4.474;2023-04-03T14:34:38;5.53;;;0.90;;
72611;SDS011;60655;52.182;4.474;2023-04-03T14:36:40;1.83;;;0.70;;
72611;SDS011;60655;52.182;4.474;2023-04-03T14:38:43;1.70;;;0.75;;
72611;SDS011;60655;52.182;4.474;2023-04-03T14:40:45;2.95;;;0.95;;
72611;SDS011;60655;52.182;4.474;2023-04-03T14:42:46;6.03;;;0.80;;